createdAt,value
2022-11-27T00:01:42.931Z,6.65
2022-11-27T00:04:13.961Z,5.15
2022-11-27T00:06:43.998Z,9.15
2022-11-27T00:09:17.513Z,6.38
2022-11-27T00:11:46.818Z,7.40
2022-11-27T00:14:18.349Z,6.53
2022-11-27T00:16:47.684Z,6.40
2022-11-27T00:19:17.183Z,5.57
2022-11-27T00:21:46.322Z,3.08
2022-11-27T00:24:15.510Z,3.67
2022-11-27T00:26:44.645Z,3.42
2022-11-27T00:29:13.939Z,3.85
2022-11-27T00:31:43.268Z,3.30
2022-11-27T00:34:12.918Z,3.92
2022-11-27T00:36:46.651Z,2.13
2022-11-27T00:39:17.365Z,2.42
2022-11-27T00:41:46.947Z,3.25
2022-11-27T00:44:16.415Z,3.30
2022-11-27T00:46:45.714Z,2.40
2022-11-27T00:49:17.203Z,3.25
2022-11-27T00:51:46.389Z,3.30
2022-11-27T00:54:15.603Z,4.05
2022-11-27T00:56:44.771Z,2.78
2022-11-27T00:59:14.242Z,2.85
2022-11-27T01:01:45.357Z,2.67
2022-11-27T01:04:17.680Z,3.30
2022-11-27T01:06:47.797Z,2.17
2022-11-27T01:09:18.038Z,2.15
2022-11-27T01:11:47.254Z,2.05
2022-11-27T01:14:19.546Z,1.42
2022-11-27T01:16:48.798Z,3.10
2022-11-27T01:19:19.271Z,1.70
2022-11-27T01:21:49.154Z,1.58
2022-11-27T01:24:19.017Z,2.47
2022-11-27T01:26:49.213Z,2.25
2022-11-27T01:29:18.410Z,2.80
2022-11-27T01:31:47.670Z,1.85
2022-11-27T01:34:20.041Z,3.33
2022-11-27T01:36:49.325Z,3.15
2022-11-27T01:39:21.990Z,3.55
2022-11-27T01:41:51.981Z,6.63
2022-11-27T01:44:26.919Z,2.88
2022-11-27T01:47:13.181Z,3.22
2022-11-27T01:49:52.220Z,2.42
2022-11-27T01:52:37.288Z,2.00
2022-11-27T01:55:26.551Z,1.95
2022-11-27T01:58:11.489Z,1.92
2022-11-27T02:00:41.911Z,1.73
2022-11-27T02:03:11.362Z,1.42
2022-11-27T02:05:40.711Z,1.52
2022-11-27T02:08:14.538Z,1.90
2022-11-27T02:11:07.907Z,1.42
2022-11-27T02:14:02.124Z,2.38
2022-11-27T02:16:51.221Z,1.92
2022-11-27T02:20:05.151Z,1.83
2022-11-27T02:23:31.108Z,1.70
2022-11-27T02:26:14.845Z,3.45
2022-11-27T02:29:10.543Z,2.60
2022-11-27T02:32:15.023Z,2.25
2022-11-27T02:35:16.011Z,2.15
2022-11-27T02:38:08.933Z,2.80
2022-11-27T02:41:13.264Z,2.40
2022-11-27T02:43:51.433Z,1.33
2022-11-27T02:46:22.829Z,3.28
2022-11-27T02:48:59.704Z,1.70
2022-11-27T02:51:38.418Z,2.05
2022-11-27T02:54:15.022Z,2.38
2022-11-27T02:56:49.167Z,1.20
2022-11-27T02:59:22.066Z,3.72
2022-11-27T03:02:02.582Z,1.77
2022-11-27T03:04:47.824Z,1.38
2022-11-27T03:07:51.772Z,1.77
2022-11-27T03:10:35.455Z,1.92
2022-11-27T03:13:05.898Z,1.83
2022-11-27T03:16:10.468Z,2.22
2022-11-27T03:19:11.461Z,1.88
2022-11-27T03:22:03.089Z,1.45
2022-11-27T03:24:36.150Z,2.10
2022-11-27T03:27:07.129Z,1.15
2022-11-27T03:30:05.147Z,1.40
2022-11-27T03:32:35.222Z,1.45
2022-11-27T03:35:06.526Z,1.50
2022-11-27T03:37:35.857Z,2.08
2022-11-27T03:40:07.378Z,1.05
2022-11-27T03:43:05.896Z,1.25
2022-11-27T03:46:10.029Z,1.70
2022-11-27T03:48:41.888Z,2.45
2022-11-27T03:51:26.930Z,2.88
2022-11-27T03:54:49.420Z,3.00
2022-11-27T03:57:30.159Z,2.80
2022-11-27T04:00:05.471Z,1.55
2022-11-27T04:02:53.123Z,1.80
2022-11-27T04:05:23.382Z,1.90
2022-11-27T04:07:53.208Z,1.58
2022-11-27T04:10:22.763Z,1.92
2022-11-27T04:12:51.965Z,1.58
2022-11-27T04:15:21.311Z,3.90
2022-11-27T04:17:50.544Z,3.10
2022-11-27T04:20:19.948Z,3.90
2022-11-27T04:22:49.224Z,1.60
2022-11-27T04:25:18.765Z,2.03
2022-11-27T04:27:48.358Z,2.08
2022-11-27T04:30:18.693Z,1.95
2022-11-27T04:32:47.942Z,1.90
2022-11-27T04:35:17.339Z,1.63
2022-11-27T04:37:46.843Z,2.00
2022-11-27T04:40:16.478Z,2.03
2022-11-27T04:42:46.146Z,2.22
2022-11-27T04:45:15.742Z,1.63
2022-11-27T04:47:45.202Z,2.22
2022-11-27T04:50:14.413Z,2.10
2022-11-27T04:52:43.678Z,2.25
2022-11-27T04:55:13.073Z,1.98
2022-11-27T04:57:42.310Z,1.63
2022-11-27T05:00:12.494Z,2.03
2022-11-27T05:02:42.183Z,1.83
2022-11-27T05:05:11.647Z,2.25
2022-11-27T05:07:41.066Z,2.50
2022-11-27T05:10:10.947Z,1.95
2022-11-27T05:12:40.285Z,1.75
2022-11-27T05:15:10.565Z,1.25
2022-11-27T05:17:39.786Z,1.33
2022-11-27T05:20:10.336Z,1.77
2022-11-27T05:22:39.453Z,2.20
2022-11-27T05:25:09.141Z,1.67
2022-11-27T05:27:38.402Z,1.38
2022-11-27T05:30:09.034Z,1.75
2022-11-27T05:32:38.655Z,1.23
2022-11-27T05:35:08.361Z,1.00
2022-11-27T05:37:37.520Z,1.10
2022-11-27T05:40:08.055Z,2.22
2022-11-27T05:42:37.213Z,1.52
2022-11-27T05:45:06.991Z,1.52
2022-11-27T05:47:36.173Z,1.27
2022-11-27T05:50:05.683Z,1.00
2022-11-27T05:52:34.929Z,1.23
2022-11-27T05:55:04.129Z,1.13
2022-11-27T05:57:33.417Z,1.83
2022-11-27T06:00:02.563Z,1.40
2022-11-27T06:02:32.642Z,1.55
2022-11-27T06:05:01.877Z,0.90
2022-11-27T06:07:33.447Z,1.23
2022-11-27T06:10:02.696Z,0.93
2022-11-27T06:12:34.165Z,1.85
2022-11-27T06:15:03.317Z,0.60
2022-11-27T06:17:32.560Z,1.00
2022-11-27T06:20:03.835Z,0.63
2022-11-27T06:22:33.273Z,0.75
2022-11-27T06:25:02.891Z,0.50
2022-11-27T06:27:36.466Z,0.80
2022-11-27T06:30:07.512Z,0.55
2022-11-27T06:32:36.799Z,0.63
2022-11-27T06:35:06.475Z,0.43
2022-11-27T06:37:35.654Z,0.68
2022-11-27T06:40:06.176Z,0.65
2022-11-27T06:42:35.341Z,0.40
2022-11-27T06:45:04.608Z,0.55
2022-11-27T06:47:33.703Z,1.05
2022-11-27T06:50:02.874Z,0.63
2022-11-27T06:52:35.811Z,0.68
2022-11-27T06:55:08.400Z,0.40
2022-11-27T06:57:37.526Z,0.40
2022-11-27T07:00:08.109Z,0.32
2022-11-27T07:02:37.332Z,0.77
2022-11-27T07:05:06.757Z,0.55
2022-11-27T07:07:38.533Z,0.77
2022-11-27T07:10:11.978Z,1.15
2022-11-27T07:12:41.194Z,1.45
2022-11-27T07:15:11.055Z,1.23
2022-11-27T07:17:40.476Z,1.80
2022-11-27T07:20:10.439Z,1.08
2022-11-27T07:22:39.604Z,1.80
2022-11-27T07:25:09.396Z,1.40
2022-11-27T07:27:38.583Z,1.08
2022-11-27T07:30:08.787Z,0.98
2022-11-27T07:32:38.053Z,0.93
2022-11-27T07:35:08.014Z,1.17
2022-11-27T07:37:37.158Z,0.77
2022-11-27T07:40:07.572Z,1.20
2022-11-27T07:42:38.278Z,1.23
2022-11-27T07:45:11.226Z,1.42
2022-11-27T07:47:41.239Z,1.25
2022-11-27T07:50:11.706Z,0.98
2022-11-27T07:52:42.149Z,1.58
2022-11-27T07:55:11.939Z,1.58
2022-11-27T07:57:41.120Z,1.40
2022-11-27T08:00:11.549Z,1.10
2022-11-27T08:02:40.852Z,1.20
2022-11-27T08:05:12.987Z,0.77
2022-11-27T08:07:42.858Z,2.25
2022-11-27T08:10:12.365Z,1.60
2022-11-27T08:12:41.614Z,1.58
2022-11-27T08:15:12.229Z,3.97
2022-11-27T08:17:42.234Z,1.38
2022-11-27T08:20:11.856Z,1.63
2022-11-27T08:22:41.154Z,1.20
2022-11-27T08:25:10.972Z,2.15
2022-11-27T08:27:40.208Z,1.10
2022-11-27T08:30:10.730Z,1.85
2022-11-27T08:32:44.639Z,1.33
2022-11-27T08:35:14.334Z,1.75
2022-11-27T08:37:43.919Z,2.28
2022-11-27T08:40:14.909Z,2.88
2022-11-27T08:42:44.187Z,6.18
2022-11-27T08:45:13.690Z,7.18
2022-11-27T08:47:44.413Z,5.72
2022-11-27T08:50:13.633Z,2.78
2022-11-27T08:52:42.834Z,4.68
2022-11-27T08:55:12.227Z,2.65
2022-11-27T08:57:41.403Z,2.45
2022-11-27T09:00:11.660Z,2.50
2022-11-27T09:02:40.970Z,3.00
2022-11-27T09:05:10.659Z,3.22
2022-11-27T09:07:41.941Z,2.85
2022-11-27T09:10:12.201Z,2.17
2022-11-27T09:12:43.554Z,3.60
2022-11-27T09:15:19.277Z,2.42
2022-11-27T09:17:48.493Z,2.05
2022-11-27T09:20:17.737Z,1.30
2022-11-27T09:22:47.246Z,1.73
2022-11-27T09:25:16.551Z,2.15
2022-11-27T09:27:45.731Z,2.60
2022-11-27T09:30:15.606Z,2.45
2022-11-27T09:32:44.886Z,2.05
2022-11-27T09:35:15.823Z,1.58
2022-11-27T09:37:45.031Z,2.50
2022-11-27T09:40:19.042Z,4.85
2022-11-27T09:43:03.174Z,2.17
2022-11-27T09:45:34.054Z,2.50
2022-11-27T09:48:08.791Z,3.00
2022-11-27T09:50:51.259Z,2.17
2022-11-27T09:53:36.841Z,3.00
2022-11-27T09:56:12.755Z,2.13
2022-11-27T09:58:52.013Z,2.00
2022-11-27T10:01:38.474Z,2.53
2022-11-27T10:04:17.693Z,3.13
2022-11-27T10:07:25.555Z,3.75
2022-11-27T10:13:22.628Z,2.78
2022-11-27T10:16:20.881Z,1.92
2022-11-27T10:18:53.973Z,2.65
2022-11-27T10:21:56.753Z,3.35
2022-11-27T10:25:14.726Z,6.07
2022-11-27T10:28:07.347Z,3.80
2022-11-27T10:30:48.928Z,2.70
2022-11-27T10:33:39.792Z,3.65
2022-11-27T10:36:29.656Z,4.35
2022-11-27T10:39:02.697Z,4.75
2022-11-27T10:42:30.007Z,5.65
2022-11-27T10:45:45.405Z,5.60
2022-11-27T10:48:16.281Z,3.40
2022-11-27T10:50:49.536Z,3.83
2022-11-27T10:53:32.495Z,4.22
2022-11-27T10:56:16.068Z,6.70
2022-11-27T10:59:00.910Z,12.52
2022-11-27T11:01:44.674Z,19.98
2022-11-27T11:04:39.368Z,17.63
2022-11-27T11:07:28.820Z,18.25
2022-11-27T11:09:58.871Z,15.18
2022-11-27T11:12:28.255Z,13.25
2022-11-27T11:15:01.369Z,8.63
2022-11-27T11:17:41.775Z,7.32
2022-11-27T11:20:26.988Z,6.13
2022-11-27T11:22:57.117Z,4.28
2022-11-27T11:25:26.388Z,4.90
2022-11-27T11:27:55.740Z,6.32
2022-11-27T11:30:32.690Z,7.50
2022-11-27T11:33:06.068Z,6.40
2022-11-27T11:35:38.664Z,9.73
2022-11-27T11:38:18.432Z,9.18
2022-11-27T11:41:08.231Z,10.75
2022-11-27T11:43:39.236Z,10.07
2022-11-27T11:46:25.996Z,10.40
2022-11-27T11:49:01.635Z,12.00
2022-11-27T11:51:58.852Z,13.48
2022-11-27T11:55:07.943Z,15.67
2022-11-27T11:57:48.589Z,15.43
2022-11-27T12:00:30.158Z,15.07
2022-11-27T12:03:32.904Z,12.18
2022-11-27T12:06:33.975Z,10.48
2022-11-27T12:10:06.228Z,8.68
2022-11-27T12:13:33.580Z,10.27
2022-11-27T12:16:17.379Z,9.85
2022-11-27T12:19:26.952Z,9.45
2022-11-27T12:22:21.981Z,9.98
2022-11-27T12:25:20.979Z,13.20
2022-11-27T12:28:40.263Z,10.02
2022-11-27T12:31:47.298Z,9.13
2022-11-27T12:34:35.485Z,8.85
2022-11-27T12:37:37.002Z,7.20
2022-11-27T12:40:21.749Z,6.88
2022-11-27T12:43:09.348Z,7.82
2022-11-27T12:46:23.443Z,7.30
2022-11-27T12:49:21.805Z,7.95
2022-11-27T12:52:07.449Z,7.60
2022-11-27T12:55:03.732Z,8.95
2022-11-27T12:57:46.596Z,9.18
2022-11-27T13:00:27.372Z,11.35
2022-11-27T13:03:28.042Z,9.70
2022-11-27T13:06:29.253Z,8.15
2022-11-27T13:09:20.214Z,8.45
2022-11-27T13:11:50.295Z,8.20
2022-11-27T13:14:25.625Z,7.10
2022-11-27T13:17:06.936Z,7.07
2022-11-27T13:19:52.289Z,6.75
2022-11-27T13:22:37.067Z,12.40
2022-11-27T13:25:06.903Z,10.95
2022-11-27T13:27:39.792Z,9.45
2022-11-27T13:30:34.184Z,12.52
2022-11-27T13:33:07.265Z,10.10
2022-11-27T13:35:37.469Z,9.93
2022-11-27T13:38:22.333Z,8.35
2022-11-27T13:40:56.918Z,8.50
2022-11-27T13:43:36.121Z,8.32
2022-11-27T13:46:32.552Z,7.68
2022-11-27T13:49:07.474Z,8.50
2022-11-27T13:51:43.557Z,7.72
2022-11-27T13:54:27.631Z,8.18
2022-11-27T13:56:58.500Z,8.27
2022-11-27T13:59:28.109Z,8.82
2022-11-27T14:02:02.904Z,10.00
2022-11-27T14:04:34.862Z,9.30
2022-11-27T14:07:14.648Z,10.18
2022-11-27T14:09:53.909Z,10.88
2022-11-27T14:12:34.302Z,10.40
2022-11-27T14:15:18.787Z,10.30
2022-11-27T14:17:55.052Z,10.70
2022-11-27T14:20:36.242Z,11.60
2022-11-27T14:23:13.816Z,9.07
2022-11-27T14:25:46.426Z,8.37
2022-11-27T14:28:28.317Z,7.72
2022-11-27T14:31:01.718Z,8.50
2022-11-27T14:33:59.546Z,8.13
2022-11-27T14:36:31.713Z,8.20
2022-11-27T14:39:02.930Z,7.72
2022-11-27T14:41:35.157Z,7.97
2022-11-27T14:44:18.702Z,7.65
2022-11-27T14:46:48.052Z,7.78
2022-11-27T14:49:27.205Z,7.97
2022-11-27T14:52:02.698Z,8.52
2022-11-27T14:54:38.801Z,8.00
2022-11-27T14:57:16.300Z,8.75
2022-11-27T14:59:47.456Z,7.20
2022-11-27T15:02:24.614Z,7.82
2022-11-27T15:05:07.272Z,7.65
2022-11-27T15:07:46.542Z,8.25
2022-11-27T15:10:41.444Z,10.48
2022-11-27T15:13:44.249Z,8.90
2022-11-27T15:16:25.656Z,7.35
2022-11-27T15:19:03.595Z,7.80
2022-11-27T15:21:42.037Z,9.23
2022-11-27T15:27:21.730Z,8.27
2022-11-27T15:29:56.657Z,8.23
2022-11-27T15:32:29.238Z,6.97
2022-11-27T15:34:58.401Z,7.68
2022-11-27T15:37:38.241Z,7.75
2022-11-27T15:40:34.224Z,7.60
2022-11-27T15:43:04.188Z,8.27
2022-11-27T15:45:34.665Z,7.97
2022-11-27T15:48:04.525Z,8.13
2022-11-27T15:50:34.103Z,7.35
2022-11-27T15:53:03.279Z,7.93
2022-11-27T15:55:34.313Z,8.40
2022-11-27T15:58:03.499Z,7.78
2022-11-27T16:00:32.588Z,7.80
2022-11-27T16:03:05.328Z,8.75
2022-11-27T16:05:34.490Z,6.80
2022-11-27T16:08:04.254Z,7.28
2022-11-27T16:10:33.593Z,7.85
2022-11-27T16:13:02.760Z,7.07
2022-11-27T16:15:33.259Z,8.57
2022-11-27T16:18:02.738Z,7.18
2022-11-27T16:20:31.957Z,8.05
2022-11-27T16:23:01.133Z,7.78
2022-11-27T16:25:30.386Z,6.47
2022-11-27T16:28:02.756Z,7.22
2022-11-27T16:30:32.828Z,6.75
2022-11-27T16:33:04.899Z,7.55
2022-11-27T16:35:34.123Z,7.20
2022-11-27T16:38:03.352Z,7.82
2022-11-27T16:40:35.868Z,6.75
2022-11-27T16:43:05.438Z,7.97
2022-11-27T16:45:38.251Z,7.25
2022-11-27T16:48:10.557Z,7.32
2022-11-27T16:50:39.794Z,7.20
2022-11-27T16:53:08.985Z,15.68
2022-11-27T16:55:38.188Z,8.55
2022-11-27T16:58:07.381Z,8.10
2022-11-27T17:00:36.700Z,8.10
2022-11-27T17:03:05.978Z,7.30
2022-11-27T17:05:39.502Z,6.47
2022-11-27T17:08:09.332Z,6.32
2022-11-27T17:10:38.577Z,6.38
2022-11-27T17:13:07.836Z,6.00
2022-11-27T17:15:40.804Z,6.38
2022-11-27T17:18:10.628Z,6.35
2022-11-27T17:20:39.786Z,6.05
2022-11-27T17:23:09.017Z,7.47
2022-11-27T17:25:38.238Z,7.70
2022-11-27T17:28:07.384Z,8.60
2022-11-27T17:30:39.715Z,8.05
2022-11-27T17:33:08.862Z,11.18
2022-11-27T17:35:38.008Z,9.38
2022-11-27T17:38:09.354Z,7.93
2022-11-27T17:40:38.564Z,7.88
2022-11-27T17:43:07.733Z,9.43
2022-11-27T17:45:41.212Z,8.60
2022-11-27T17:48:10.601Z,9.65
2022-11-27T17:50:40.915Z,8.35
2022-11-27T17:53:11.299Z,7.95
2022-11-27T17:55:40.581Z,8.77
2022-11-27T17:58:10.731Z,7.80
2022-11-27T18:00:41.221Z,8.80
2022-11-27T18:03:11.262Z,9.15
2022-11-27T18:05:41.591Z,8.40
2022-11-27T18:08:10.806Z,8.25
2022-11-27T18:10:40.058Z,8.45
2022-11-27T18:13:09.200Z,8.35
2022-11-27T18:15:38.682Z,8.30
2022-11-27T18:18:08.669Z,7.80
2022-11-27T18:20:38.083Z,8.20
2022-11-27T18:23:07.565Z,8.20
2022-11-27T18:25:37.689Z,7.32
2022-11-27T18:28:07.605Z,7.30
2022-11-27T18:30:37.115Z,6.95
2022-11-27T18:33:08.933Z,7.70
2022-11-27T18:35:43.474Z,8.00
2022-11-27T18:38:12.614Z,7.70
2022-11-27T18:40:42.566Z,7.53
2022-11-27T18:43:12.333Z,7.47
2022-11-27T18:45:41.638Z,7.75
2022-11-27T18:48:10.830Z,7.30
2022-11-27T18:50:39.905Z,7.00
2022-11-27T18:53:09.040Z,7.45
2022-11-27T18:55:38.144Z,7.68
2022-11-27T18:58:07.259Z,7.10
2022-11-27T19:00:36.541Z,8.07
2022-11-27T19:03:06.046Z,7.80
2022-11-27T19:05:37.928Z,8.57
2022-11-27T19:08:09.932Z,7.57
2022-11-27T19:10:39.120Z,7.80
2022-11-27T19:13:08.211Z,7.53
2022-11-27T19:15:41.046Z,8.07
2022-11-27T19:18:10.366Z,8.13
2022-11-27T19:20:40.675Z,8.88
2022-11-27T19:23:09.888Z,8.65
2022-11-27T19:25:40.033Z,7.55
2022-11-27T19:28:11.465Z,7.95
2022-11-27T19:30:44.340Z,8.48
2022-11-27T19:33:13.767Z,8.00
2022-11-27T19:35:42.853Z,8.38
2022-11-27T19:38:11.921Z,8.27
2022-11-27T19:40:42.466Z,7.32
2022-11-27T19:43:11.602Z,8.00
2022-11-27T19:45:40.782Z,8.45
2022-11-27T19:48:09.974Z,7.45
2022-11-27T19:50:39.198Z,7.35
2022-11-27T19:53:08.500Z,7.20
2022-11-27T19:55:37.703Z,6.22
2022-11-27T19:58:06.814Z,6.82
2022-11-27T20:00:36.030Z,7.38
2022-11-27T20:03:06.090Z,7.00
2022-11-27T20:05:35.207Z,6.30
2022-11-27T20:08:05.292Z,6.47
2022-11-27T20:10:37.257Z,7.90
2022-11-27T20:13:06.393Z,7.55
2022-11-27T20:15:35.512Z,7.65
2022-11-27T20:18:05.150Z,7.95
2022-11-27T20:20:34.378Z,8.32
2022-11-27T20:23:03.468Z,8.52
2022-11-27T20:25:32.784Z,8.48
2022-11-27T20:28:02.058Z,7.60
2022-11-27T20:30:31.688Z,7.78
2022-11-27T20:33:07.205Z,6.88
2022-11-27T20:35:36.756Z,7.70
2022-11-27T20:38:05.889Z,7.22
2022-11-27T20:40:35.013Z,7.68
2022-11-27T20:43:04.113Z,7.38
2022-11-27T20:45:33.341Z,7.63
2022-11-27T20:48:02.459Z,7.72
2022-11-27T20:50:31.587Z,8.00
2022-11-27T20:53:00.722Z,8.40
2022-11-27T20:55:29.898Z,7.22
2022-11-27T20:57:59.049Z,7.97
2022-11-27T21:00:28.248Z,8.80
2022-11-27T21:02:57.385Z,8.48
2022-11-27T21:05:26.557Z,8.32
2022-11-27T21:07:58.356Z,7.20
2022-11-27T21:10:29.272Z,8.38
2022-11-27T21:12:58.533Z,8.18
2022-11-27T21:15:27.708Z,8.07
2022-11-27T21:17:56.870Z,8.35
2022-11-27T21:20:26.194Z,8.48
2022-11-27T21:22:55.587Z,8.15
2022-11-27T21:25:25.760Z,7.90
2022-11-27T21:27:56.887Z,7.68
2022-11-27T21:30:26.862Z,8.55
2022-11-27T21:32:56.026Z,9.07
2022-11-27T21:35:31.310Z,8.05
2022-11-27T21:38:01.337Z,8.20
2022-11-27T21:40:30.580Z,8.55
2022-11-27T21:42:59.766Z,9.52
2022-11-27T21:45:29.241Z,8.23
2022-11-27T21:47:58.417Z,8.20
2022-11-27T21:50:27.587Z,7.78
2022-11-27T21:52:56.869Z,8.05
2022-11-27T21:55:26.060Z,7.78
2022-11-27T21:57:55.188Z,7.18
2022-11-27T22:00:24.464Z,8.40
2022-11-27T22:02:53.682Z,8.55
2022-11-27T22:05:22.907Z,8.43
2022-11-27T22:07:52.280Z,8.60
2022-11-27T22:10:21.904Z,8.77
2022-11-27T22:12:51.126Z,9.00
2022-11-27T22:15:20.368Z,7.93
2022-11-27T22:17:49.657Z,9.45
2022-11-27T22:20:19.122Z,9.70
2022-11-27T22:22:48.271Z,10.45
2022-11-27T22:25:18.937Z,10.55
2022-11-27T22:27:48.063Z,11.15
2022-11-27T22:30:17.525Z,12.27
2022-11-27T22:32:46.852Z,12.55
2022-11-27T22:35:16.076Z,12.18
2022-11-27T22:37:45.289Z,12.00
2022-11-27T22:40:15.296Z,10.75
2022-11-27T22:42:45.321Z,11.60
2022-11-27T22:45:14.833Z,11.50
2022-11-27T22:47:44.078Z,12.00
2022-11-27T22:50:13.248Z,10.63
2022-11-27T22:52:42.473Z,11.65
2022-11-27T22:55:12.006Z,13.23
2022-11-27T22:57:41.571Z,11.13
2022-11-27T23:00:12.107Z,10.57
2022-11-27T23:02:41.312Z,11.70
2022-11-27T23:05:10.763Z,10.57
2022-11-27T23:07:40.018Z,11.10
2022-11-27T23:10:15.740Z,10.57
2022-11-27T23:12:44.936Z,11.02
2022-11-27T23:15:14.299Z,10.98
2022-11-27T23:17:43.522Z,10.73
2022-11-27T23:20:14.371Z,11.77
2022-11-27T23:22:43.633Z,11.65
2022-11-27T23:25:12.795Z,12.88
2022-11-27T23:27:45.915Z,11.30
2022-11-27T23:30:16.302Z,12.18
2022-11-27T23:32:45.487Z,14.05
2022-11-27T23:35:14.809Z,16.45
2022-11-27T23:37:44.452Z,15.18
2022-11-27T23:40:14.077Z,16.75
2022-11-27T23:42:43.804Z,15.90
2022-11-27T23:45:16.607Z,16.33
2022-11-27T23:47:45.900Z,19.67
2022-11-27T23:50:15.238Z,21.30
2022-11-27T23:52:44.500Z,31.65
2022-11-27T23:55:14.243Z,22.83
2022-11-27T23:57:43.541Z,20.80
